sensor_id;sensor_type;location;lat;lon;timestamp;P1;durP1;ratioP1;P2;durP2;ratioP2
3647;SDS011;1840;48.892;15.312;2023-04-06T00:02:16;18.50;;;9.70;;
3647;SDS011;1840;48.892;15.312;2023-04-06T00:04:44;17.80;;;9.93;;
3647;SDS011;1840;48.892;15.312;2023-04-06T00:07:12;15.40;;;9.33;;
3647;SDS011;1840;48.892;15.312;2023-04-06T00:09:41;14.93;;;9.00;;
3647;SDS011;1840;48.892;15.312;2023-04-06T00:12:09;14.60;;;9.23;;
3647;SDS011;1840;48.892;15.312;2023-04-06T00:14:37;19.20;;;9.30;;
3647;SDS011;1840;48.892;15.312;2023-04-06T00:17:06;19.60;;;9.70;;
3647;SDS011;1840;48.892;15.312;2023-04-06T00:19:34;14.13;;;8.93;;
3647;SDS011;1840;48.892;15.312;2023-04-06T00:22:03;16.97;;;9.80;;
3647;SDS011;1840;48.892;15.312;2023-04-06T00:24:31;19.40;;;10.50;;
3647;SDS011;1840;48.892;15.312;2023-04-06T00:27:00;20.20;;;9.67;;
3647;SDS011;1840;48.892;15.312;2023-04-06T00:29:28;23.07;;;12.53;;
3647;SDS011;1840;48.892;15.312;2023-04-06T00:31:56;20.20;;;11.33;;
3647;SDS011;1840;48.892;15.312;2023-04-06T00:34:24;25.80;;;11.67;;
3647;SDS011;1840;48.892;15.312;2023-04-06T00:36:52;20.03;;;12.03;;
3647;SDS011;1840;48.892;15.312;2023-04-06T00:39:21;28.17;;;12.63;;
3647;SDS011;1840;48.892;15.312;2023-04-06T00:41:49;18.57;;;10.60;;
3647;SDS011;1840;48.892;15.312;2023-04-06T00:44:20;20.60;;;11.83;;
3647;SDS011;1840;48.892;15.312;2023-04-06T00:46:49;28.73;;;11.77;;
3647;SDS011;1840;48.892;15.312;2023-04-06T00:49:17;18.17;;;11.87;;
3647;SDS011;1840;48.892;15.312;2023-04-06T00:51:45;16.40;;;10.13;;
3647;SDS011;1840;48.892;15.312;2023-04-06T00:54:13;18.77;;;11.10;;
3647;SDS011;1840;48.892;15.312;2023-04-06T00:56:41;16.17;;;9.90;;
3647;SDS011;1840;48.892;15.312;2023-04-06T00:59:10;16.50;;;10.20;;
3647;SDS011;1840;48.892;15.312;2023-04-06T01:01:40;21.43;;;12.50;;
3647;SDS011;1840;48.892;15.312;2023-04-06T01:04:08;20.03;;;11.20;;
3647;SDS011;1840;48.892;15.312;2023-04-06T01:06:36;20.70;;;11.53;;
3647;SDS011;1840;48.892;15.312;2023-04-06T01:09:04;19.93;;;11.67;;
3647;SDS011;1840;48.892;15.312;2023-04-06T01:11:33;25.33;;;13.10;;
3647;SDS011;1840;48.892;15.312;2023-04-06T01:14:01;14.57;;;9.40;;
3647;SDS011;1840;48.892;15.312;2023-04-06T01:16:29;16.87;;;9.90;;
3647;SDS011;1840;48.892;15.312;2023-04-06T01:18:59;15.50;;;9.07;;
3647;SDS011;1840;48.892;15.312;2023-04-06T01:21:27;15.80;;;10.10;;
3647;SDS011;1840;48.892;15.312;2023-04-06T01:23:56;17.83;;;10.70;;
3647;SDS011;1840;48.892;15.312;2023-04-06T01:26:24;14.93;;;9.20;;
3647;SDS011;1840;48.892;15.312;2023-04-06T01:28:53;16.53;;;9.27;;
3647;SDS011;1840;48.892;15.312;2023-04-06T01:31:21;14.17;;;8.97;;
3647;SDS011;1840;48.892;15.312;2023-04-06T01:33:49;15.27;;;9.13;;
3647;SDS011;1840;48.892;15.312;2023-04-06T01:36:17;16.87;;;9.20;;
3647;SDS011;1840;48.892;15.312;2023-04-06T01:38:45;17.43;;;8.60;;
3647;SDS011;1840;48.892;15.312;2023-04-06T01:41:15;14.40;;;9.13;;
3647;SDS011;1840;48.892;15.312;2023-04-06T01:43:43;15.47;;;9.20;;
3647;SDS011;1840;48.892;15.312;2023-04-06T01:46:11;18.30;;;10.20;;
3647;SDS011;1840;48.892;15.312;2023-04-06T01:48:39;16.13;;;9.47;;
3647;SDS011;1840;48.892;15.312;2023-04-06T01:51:08;16.90;;;9.17;;
3647;SDS011;1840;48.892;15.312;2023-04-06T01:53:36;16.20;;;9.40;;
3647;SDS011;1840;48.892;15.312;2023-04-06T01:56:04;17.03;;;9.77;;
3647;SDS011;1840;48.892;15.312;2023-04-06T01:58:34;14.93;;;8.90;;
3647;SDS011;1840;48.892;15.312;2023-04-06T02:01:02;20.77;;;10.40;;
3647;SDS011;1840;48.892;15.312;2023-04-06T02:03:30;16.53;;;8.87;;
3647;SDS011;1840;48.892;15.312;2023-04-06T02:05:58;17.20;;;9.23;;
3647;SDS011;1840;48.892;15.312;2023-04-06T02:08:26;16.17;;;8.80;;
3647;SDS011;1840;48.892;15.312;2023-04-06T02:10:55;16.17;;;9.10;;
3647;SDS011;1840;48.892;15.312;2023-04-06T02:13:23;20.37;;;9.00;;
3647;SDS011;1840;48.892;15.312;2023-04-06T02:15:52;18.87;;;10.80;;
3647;SDS011;1840;48.892;15.312;2023-04-06T02:18:20;20.20;;;10.67;;
3647;SDS011;1840;48.892;15.312;2023-04-06T02:20:48;19.93;;;10.33;;
3647;SDS011;1840;48.892;15.312;2023-04-06T02:23:17;18.33;;;11.80;;
3647;SDS011;1840;48.892;15.312;2023-04-06T02:25:45;17.30;;;11.70;;
3647;SDS011;1840;48.892;15.312;2023-04-06T02:28:13;15.47;;;8.80;;
3647;SDS011;1840;48.892;15.312;2023-04-06T02:30:41;17.23;;;9.23;;
3647;SDS011;1840;48.892;15.312;2023-04-06T02:33:11;15.73;;;9.13;;
3647;SDS011;1840;48.892;15.312;2023-04-06T02:35:39;14.17;;;9.03;;
3647;SDS011;1840;48.892;15.312;2023-04-06T02:38:07;15.73;;;9.33;;
3647;SDS011;1840;48.892;15.312;2023-04-06T02:40:35;14.90;;;8.23;;
3647;SDS011;1840;48.892;15.312;2023-04-06T02:43:03;19.50;;;10.40;;
3647;SDS011;1840;48.892;15.312;2023-04-06T02:45:31;15.40;;;9.20;;
3647;SDS011;1840;48.892;15.312;2023-04-06T02:47:59;17.43;;;9.23;;
3647;SDS011;1840;48.892;15.312;2023-04-06T02:50:29;18.83;;;9.83;;
3647;SDS011;1840;48.892;15.312;2023-04-06T02:52:57;15.70;;;9.80;;
3647;SDS011;1840;48.892;15.312;2023-04-06T02:55:25;15.63;;;9.03;;
3647;SDS011;1840;48.892;15.312;2023-04-06T02:57:53;14.90;;;9.33;;
3647;SDS011;1840;48.892;15.312;2023-04-06T03:00:21;13.20;;;8.47;;
3647;SDS011;1840;48.892;15.312;2023-04-06T03:02:49;16.97;;;9.37;;
3647;SDS011;1840;48.892;15.312;2023-04-06T03:05:17;14.60;;;8.10;;
3647;SDS011;1840;48.892;15.312;2023-04-06T03:07:47;17.90;;;9.30;;
3647;SDS011;1840;48.892;15.312;2023-04-06T03:10:15;15.90;;;9.00;;
3647;SDS011;1840;48.892;15.312;2023-04-06T03:12:43;18.10;;;9.00;;
3647;SDS011;1840;48.892;15.312;2023-04-06T03:15:11;17.30;;;9.27;;
3647;SDS011;1840;48.892;15.312;2023-04-06T03:17:39;34.13;;;10.00;;
3647;SDS011;1840;48.892;15.312;2023-04-06T03:20:08;28.03;;;8.27;;
3647;SDS011;1840;48.892;15.312;2023-04-06T03:22:36;19.83;;;8.87;;
3647;SDS011;1840;48.892;15.312;2023-04-06T03:25:06;14.33;;;7.67;;
3647;SDS011;1840;48.892;15.312;2023-04-06T03:27:34;16.60;;;8.77;;
3647;SDS011;1840;48.892;15.312;2023-04-06T03:30:02;11.77;;;6.70;;
3647;SDS011;1840;48.892;15.312;2023-04-06T03:32:34;12.70;;;8.60;;
3647;SDS011;1840;48.892;15.312;2023-04-06T03:35:02;15.50;;;9.73;;
3647;SDS011;1840;48.892;15.312;2023-04-06T03:37:31;20.70;;;10.03;;
3647;SDS011;1840;48.892;15.312;2023-04-06T03:39:59;15.87;;;9.10;;
3647;SDS011;1840;48.892;15.312;2023-04-06T03:42:29;19.63;;;10.30;;
3647;SDS011;1840;48.892;15.312;2023-04-06T03:44:57;15.33;;;8.53;;
3647;SDS011;1840;48.892;15.312;2023-04-06T03:47:25;16.30;;;9.53;;
3647;SDS011;1840;48.892;15.312;2023-04-06T03:49:54;12.90;;;8.83;;
3647;SDS011;1840;48.892;15.312;2023-04-06T03:52:22;15.87;;;9.30;;
3647;SDS011;1840;48.892;15.312;2023-04-06T03:54:50;15.87;;;10.00;;
3647;SDS011;1840;48.892;15.312;2023-04-06T03:57:18;22.33;;;9.57;;
3647;SDS011;1840;48.892;15.312;2023-04-06T03:59:48;13.73;;;9.30;;
3647;SDS011;1840;48.892;15.312;2023-04-06T04:02:16;17.93;;;9.07;;
3647;SDS011;1840;48.892;15.312;2023-04-06T04:04:44;11.40;;;7.77;;
3647;SDS011;1840;48.892;15.312;2023-04-06T04:07:12;13.70;;;8.07;;
3647;SDS011;1840;48.892;15.312;2023-04-06T04:09:40;15.37;;;9.03;;
3647;SDS011;1840;48.892;15.312;2023-04-06T04:12:08;15.23;;;8.97;;
3647;SDS011;1840;48.892;15.312;2023-04-06T04:14:36;18.50;;;10.10;;
3647;SDS011;1840;48.892;15.312;2023-04-06T04:17:06;17.30;;;9.20;;
3647;SDS011;1840;48.892;15.312;2023-04-06T04:19:34;14.03;;;9.40;;
3647;SDS011;1840;48.892;15.312;2023-04-06T04:22:02;17.23;;;9.13;;
3647;SDS011;1840;48.892;15.312;2023-04-06T04:24:31;15.50;;;9.93;;
3647;SDS011;1840;48.892;15.312;2023-04-06T04:26:59;18.80;;;9.80;;
3647;SDS011;1840;48.892;15.312;2023-04-06T04:29:28;15.53;;;9.70;;
3647;SDS011;1840;48.892;15.312;2023-04-06T04:31:56;19.73;;;9.57;;
3647;SDS011;1840;48.892;15.312;2023-04-06T04:34:25;15.77;;;9.67;;
3647;SDS011;1840;48.892;15.312;2023-04-06T04:36:54;15.43;;;9.43;;
3647;SDS011;1840;48.892;15.312;2023-04-06T04:39:22;17.93;;;8.60;;
3647;SDS011;1840;48.892;15.312;2023-04-06T04:41:50;19.10;;;9.70;;
3647;SDS011;1840;48.892;15.312;2023-04-06T04:44:19;18.63;;;8.80;;
3647;SDS011;1840;48.892;15.312;2023-04-06T04:46:47;17.70;;;10.60;;
3647;SDS011;1840;48.892;15.312;2023-04-06T04:49:15;21.87;;;10.80;;
3647;SDS011;1840;48.892;15.312;2023-04-06T04:51:45;24.37;;;12.20;;
3647;SDS011;1840;48.892;15.312;2023-04-06T04:54:13;25.63;;;10.73;;
3647;SDS011;1840;48.892;15.312;2023-04-06T04:56:41;19.10;;;11.27;;
3647;SDS011;1840;48.892;15.312;2023-04-06T04:59:09;37.53;;;13.20;;
3647;SDS011;1840;48.892;15.312;2023-04-06T05:01:37;19.83;;;11.63;;
3647;SDS011;1840;48.892;15.312;2023-04-06T05:04:19;15.70;;;9.50;;
3647;SDS011;1840;48.892;15.312;2023-04-06T05:06:49;11.80;;;8.00;;
3647;SDS011;1840;48.892;15.312;2023-04-06T05:09:17;16.87;;;9.90;;
3647;SDS011;1840;48.892;15.312;2023-04-06T05:11:45;22.03;;;9.93;;
3647;SDS011;1840;48.892;15.312;2023-04-06T05:14:13;14.87;;;9.80;;
3647;SDS011;1840;48.892;15.312;2023-04-06T05:16:42;15.60;;;10.33;;
3647;SDS011;1840;48.892;15.312;2023-04-06T05:19:10;18.17;;;11.10;;
3647;SDS011;1840;48.892;15.312;2023-04-06T05:21:38;23.90;;;10.80;;
3647;SDS011;1840;48.892;15.312;2023-04-06T05:24:08;16.33;;;8.87;;
3647;SDS011;1840;48.892;15.312;2023-04-06T05:26:36;16.70;;;10.10;;
3647;SDS011;1840;48.892;15.312;2023-04-06T05:29:04;15.93;;;10.70;;
3647;SDS011;1840;48.892;15.312;2023-04-06T05:31:33;29.23;;;10.90;;
3647;SDS011;1840;48.892;15.312;2023-04-06T05:34:01;15.50;;;10.17;;
3647;SDS011;1840;48.892;15.312;2023-04-06T05:36:29;23.07;;;10.53;;
3647;SDS011;1840;48.892;15.312;2023-04-06T05:38:58;21.67;;;10.20;;
3647;SDS011;1840;48.892;15.312;2023-04-06T05:41:27;15.13;;;9.50;;
3647;SDS011;1840;48.892;15.312;2023-04-06T05:43:55;19.93;;;10.27;;
3647;SDS011;1840;48.892;15.312;2023-04-06T05:46:24;21.10;;;10.87;;
3647;SDS011;1840;48.892;15.312;2023-04-06T05:48:52;14.07;;;9.43;;
3647;SDS011;1840;48.892;15.312;2023-04-06T05:51:20;13.90;;;9.57;;
3647;SDS011;1840;48.892;15.312;2023-04-06T05:53:48;12.83;;;8.50;;
3647;SDS011;1840;48.892;15.312;2023-04-06T05:56:16;21.07;;;10.40;;
3647;SDS011;1840;48.892;15.312;2023-04-06T05:58:46;14.90;;;9.07;;
3647;SDS011;1840;48.892;15.312;2023-04-06T06:01:14;20.67;;;10.23;;
3647;SDS011;1840;48.892;15.312;2023-04-06T06:03:42;16.73;;;9.80;;
3647;SDS011;1840;48.892;15.312;2023-04-06T06:06:11;15.63;;;10.17;;
3647;SDS011;1840;48.892;15.312;2023-04-06T06:08:39;18.67;;;11.40;;
3647;SDS011;1840;48.892;15.312;2023-04-06T06:11:07;19.53;;;9.43;;
3647;SDS011;1840;48.892;15.312;2023-04-06T06:13:35;16.07;;;9.03;;
3647;SDS011;1840;48.892;15.312;2023-04-06T06:16:05;13.33;;;7.70;;
3647;SDS011;1840;48.892;15.312;2023-04-06T06:18:33;11.20;;;7.60;;
3647;SDS011;1840;48.892;15.312;2023-04-06T06:21:02;12.83;;;7.90;;
3647;SDS011;1840;48.892;15.312;2023-04-06T06:23:31;15.63;;;8.10;;
3647;SDS011;1840;48.892;15.312;2023-04-06T06:25:59;11.97;;;7.50;;
3647;SDS011;1840;48.892;15.312;2023-04-06T06:28:27;15.60;;;7.53;;
3647;SDS011;1840;48.892;15.312;2023-04-06T06:30:55;10.33;;;7.07;;
3647;SDS011;1840;48.892;15.312;2023-04-06T06:33:26;17.60;;;9.30;;
3647;SDS011;1840;48.892;15.312;2023-04-06T06:35:54;19.33;;;8.73;;
3647;SDS011;1840;48.892;15.312;2023-04-06T06:38:22;12.63;;;7.70;;
3647;SDS011;1840;48.892;15.312;2023-04-06T06:40:50;25.63;;;10.40;;
3647;SDS011;1840;48.892;15.312;2023-04-06T06:43:18;13.70;;;7.50;;
3647;SDS011;1840;48.892;15.312;2023-04-06T06:45:47;15.47;;;7.87;;
3647;SDS011;1840;48.892;15.312;2023-04-06T06:48:15;16.50;;;7.10;;
3647;SDS011;1840;48.892;15.312;2023-04-06T06:50:44;11.93;;;7.13;;
3647;SDS011;1840;48.892;15.312;2023-04-06T06:53:14;15.17;;;7.40;;
3647;SDS011;1840;48.892;15.312;2023-04-06T06:55:42;15.47;;;7.33;;
3647;SDS011;1840;48.892;15.312;2023-04-06T06:58:11;11.00;;;6.97;;
3647;SDS011;1840;48.892;15.312;2023-04-06T07:00:39;16.53;;;8.23;;
3647;SDS011;1840;48.892;15.312;2023-04-06T07:03:07;12.20;;;6.47;;
3647;SDS011;1840;48.892;15.312;2023-04-06T07:05:36;16.00;;;8.27;;
3647;SDS011;1840;48.892;15.312;2023-04-06T07:08:08;13.90;;;7.40;;
3647;SDS011;1840;48.892;15.312;2023-04-06T07:10:36;17.23;;;8.53;;
3647;SDS011;1840;48.892;15.312;2023-04-06T07:13:04;20.93;;;7.83;;
3647;SDS011;1840;48.892;15.312;2023-04-06T07:15:32;14.50;;;8.07;;
3647;SDS011;1840;48.892;15.312;2023-04-06T07:18:00;15.20;;;8.10;;
3647;SDS011;1840;48.892;15.312;2023-04-06T07:20:28;11.97;;;6.80;;
3647;SDS011;1840;48.892;15.312;2023-04-06T07:22:56;27.30;;;9.70;;
3647;SDS011;1840;48.892;15.312;2023-04-06T07:25:26;15.13;;;7.17;;
3647;SDS011;1840;48.892;15.312;2023-04-06T07:27:54;14.47;;;7.20;;
3647;SDS011;1840;48.892;15.312;2023-04-06T07:30:22;11.83;;;7.20;;
3647;SDS011;1840;48.892;15.312;2023-04-06T07:32:52;11.10;;;6.40;;
3647;SDS011;1840;48.892;15.312;2023-04-06T07:35:21;11.60;;;6.27;;
3647;SDS011;1840;48.892;15.312;2023-04-06T07:37:50;15.80;;;7.17;;
3647;SDS011;1840;48.892;15.312;2023-04-06T07:40:18;9.77;;;5.33;;
3647;SDS011;1840;48.892;15.312;2023-04-06T07:42:48;9.83;;;5.13;;
3647;SDS011;1840;48.892;15.312;2023-04-06T07:45:16;8.63;;;5.80;;
3647;SDS011;1840;48.892;15.312;2023-04-06T07:47:44;7.50;;;4.63;;
3647;SDS011;1840;48.892;15.312;2023-04-06T07:50:13;10.00;;;5.50;;
3647;SDS011;1840;48.892;15.312;2023-04-06T07:52:41;8.30;;;4.30;;
3647;SDS011;1840;48.892;15.312;2023-04-06T07:55:09;6.60;;;3.97;;
3647;SDS011;1840;48.892;15.312;2023-04-06T07:57:37;8.33;;;4.07;;
3647;SDS011;1840;48.892;15.312;2023-04-06T08:00:07;8.17;;;3.90;;
3647;SDS011;1840;48.892;15.312;2023-04-06T08:02:36;11.30;;;4.97;;
3647;SDS011;1840;48.892;15.312;2023-04-06T08:05:05;8.13;;;4.43;;
3647;SDS011;1840;48.892;15.312;2023-04-06T08:07:33;9.83;;;3.97;;
3647;SDS011;1840;48.892;15.312;2023-04-06T08:10:02;10.93;;;3.80;;
3647;SDS011;1840;48.892;15.312;2023-04-06T08:12:31;5.30;;;3.70;;
3647;SDS011;1840;48.892;15.312;2023-04-06T08:15:00;5.80;;;3.30;;
3647;SDS011;1840;48.892;15.312;2023-04-06T08:17:30;6.70;;;4.00;;
3647;SDS011;1840;48.892;15.312;2023-04-06T08:20:00;6.17;;;4.10;;
3647;SDS011;1840;48.892;15.312;2023-04-06T08:22:29;6.23;;;3.80;;
3647;SDS011;1840;48.892;15.312;2023-04-06T08:24:57;8.33;;;3.80;;
3647;SDS011;1840;48.892;15.312;2023-04-06T08:27:26;5.00;;;3.00;;
3647;SDS011;1840;48.892;15.312;2023-04-06T08:29:54;5.60;;;3.23;;
3647;SDS011;1840;48.892;15.312;2023-04-06T08:32:22;6.43;;;3.93;;
3647;SDS011;1840;48.892;15.312;2023-04-06T08:34:54;6.50;;;3.50;;
3647;SDS011;1840;48.892;15.312;2023-04-06T08:37:22;5.57;;;3.57;;
3647;SDS011;1840;48.892;15.312;2023-04-06T08:39:50;6.73;;;3.70;;
3647;SDS011;1840;48.892;15.312;2023-04-06T08:42:19;7.53;;;3.77;;
3647;SDS011;1840;48.892;15.312;2023-04-06T08:44:48;6.40;;;3.83;;
3647;SDS011;1840;48.892;15.312;2023-04-06T08:47:18;5.33;;;3.53;;
3647;SDS011;1840;48.892;15.312;2023-04-06T08:49:50;6.97;;;3.37;;
3647;SDS011;1840;48.892;15.312;2023-04-06T08:52:20;8.03;;;3.30;;
3647;SDS011;1840;48.892;15.312;2023-04-06T08:54:48;5.03;;;3.10;;
3647;SDS011;1840;48.892;15.312;2023-04-06T08:57:16;5.03;;;2.70;;
3647;SDS011;1840;48.892;15.312;2023-04-06T08:59:45;6.10;;;3.17;;
3647;SDS011;1840;48.892;15.312;2023-04-06T09:02:15;9.30;;;3.43;;
3647;SDS011;1840;48.892;15.312;2023-04-06T09:04:45;6.50;;;3.57;;
3647;SDS011;1840;48.892;15.312;2023-04-06T09:07:15;4.30;;;2.97;;
3647;SDS011;1840;48.892;15.312;2023-04-06T09:09:44;5.50;;;3.10;;
3647;SDS011;1840;48.892;15.312;2023-04-06T09:12:22;5.40;;;3.20;;
3647;SDS011;1840;48.892;15.312;2023-04-06T09:14:51;5.60;;;2.63;;
3647;SDS011;1840;48.892;15.312;2023-04-06T09:17:20;4.13;;;2.70;;
3647;SDS011;1840;48.892;15.312;2023-04-06T09:19:48;9.50;;;3.90;;
3647;SDS011;1840;48.892;15.312;2023-04-06T09:22:17;5.40;;;2.80;;
3647;SDS011;1840;48.892;15.312;2023-04-06T09:24:47;9.80;;;3.30;;
3647;SDS011;1840;48.892;15.312;2023-04-06T09:27:17;6.50;;;3.77;;
3647;SDS011;1840;48.892;15.312;2023-04-06T09:29:45;6.57;;;3.53;;
3647;SDS011;1840;48.892;15.312;2023-04-06T09:32:13;6.10;;;3.67;;
3647;SDS011;1840;48.892;15.312;2023-04-06T09:34:43;6.43;;;3.23;;
3647;SDS011;1840;48.892;15.312;2023-04-06T09:37:16;4.80;;;3.20;;
3647;SDS011;1840;48.892;15.312;2023-04-06T09:39:47;5.93;;;3.70;;
3647;SDS011;1840;48.892;15.312;2023-04-06T09:42:23;5.33;;;3.03;;
3647;SDS011;1840;48.892;15.312;2023-04-06T09:44:51;5.93;;;3.20;;
3647;SDS011;1840;48.892;15.312;2023-04-06T09:47:20;6.83;;;4.03;;
3647;SDS011;1840;48.892;15.312;2023-04-06T09:49:55;5.10;;;3.30;;
3647;SDS011;1840;48.892;15.312;2023-04-06T09:52:24;7.30;;;3.13;;
3647;SDS011;1840;48.892;15.312;2023-04-06T09:54:57;6.93;;;3.83;;
3647;SDS011;1840;48.892;15.312;2023-04-06T09:57:32;7.43;;;4.10;;
3647;SDS011;1840;48.892;15.312;2023-04-06T10:00:05;5.70;;;3.53;;
3647;SDS011;1840;48.892;15.312;2023-04-06T10:02:39;10.30;;;4.50;;
3647;SDS011;1840;48.892;15.312;2023-04-06T10:05:19;7.70;;;4.00;;
3647;SDS011;1840;48.892;15.312;2023-04-06T10:07:53;6.83;;;3.90;;
3647;SDS011;1840;48.892;15.312;2023-04-06T10:10:28;6.93;;;3.80;;
3647;SDS011;1840;48.892;15.312;2023-04-06T10:12:57;8.50;;;3.90;;
3647;SDS011;1840;48.892;15.312;2023-04-06T10:15:27;6.70;;;3.97;;
3647;SDS011;1840;48.892;15.312;2023-04-06T10:17:55;6.23;;;4.67;;
3647;SDS011;1840;48.892;15.312;2023-04-06T10:20:25;8.17;;;5.00;;
3647;SDS011;1840;48.892;15.312;2023-04-06T10:22:59;8.80;;;4.30;;
3647;SDS011;1840;48.892;15.312;2023-04-06T10:25:34;9.10;;;4.70;;
3647;SDS011;1840;48.892;15.312;2023-04-06T10:28:04;8.20;;;4.83;;
3647;SDS011;1840;48.892;15.312;2023-04-06T10:30:33;8.10;;;5.07;;
3647;SDS011;1840;48.892;15.312;2023-04-06T10:35:11;17.90;;;4.90;;
3647;SDS011;1840;48.892;15.312;2023-04-06T10:37:46;10.17;;;5.00;;
3647;SDS011;1840;48.892;15.312;2023-04-06T10:40:20;8.53;;;5.27;;
3647;SDS011;1840;48.892;15.312;2023-04-06T10:42:50;8.70;;;5.07;;
3647;SDS011;1840;48.892;15.312;2023-04-06T10:45:20;12.27;;;5.37;;
3647;SDS011;1840;48.892;15.312;2023-04-06T10:47:49;8.10;;;5.27;;
3647;SDS011;1840;48.892;15.312;2023-04-06T10:50:21;9.20;;;5.20;;
3647;SDS011;1840;48.892;15.312;2023-04-06T10:52:58;9.83;;;5.63;;
3647;SDS011;1840;48.892;15.312;2023-04-06T10:55:27;8.50;;;5.20;;
3647;SDS011;1840;48.892;15.312;2023-04-06T10:57:55;7.27;;;4.80;;
3647;SDS011;1840;48.892;15.312;2023-04-06T11:00:23;10.70;;;5.30;;
3647;SDS011;1840;48.892;15.312;2023-04-06T11:03:08;9.83;;;5.57;;
3647;SDS011;1840;48.892;15.312;2023-04-06T11:05:38;6.50;;;4.70;;
3647;SDS011;1840;48.892;15.312;2023-04-06T11:08:06;7.20;;;4.80;;
3647;SDS011;1840;48.892;15.312;2023-04-06T11:10:34;8.47;;;5.10;;
3647;SDS011;1840;48.892;15.312;2023-04-06T11:13:03;9.20;;;5.20;;
3647;SDS011;1840;48.892;15.312;2023-04-06T11:15:33;11.37;;;5.10;;
3647;SDS011;1840;48.892;15.312;2023-04-06T11:18:04;10.80;;;5.10;;
3647;SDS011;1840;48.892;15.312;2023-04-06T11:20:33;11.73;;;5.03;;
3647;SDS011;1840;48.892;15.312;2023-04-06T11:23:02;8.47;;;5.57;;
3647;SDS011;1840;48.892;15.312;2023-04-06T11:25:30;13.60;;;7.40;;
3647;SDS011;1840;48.892;15.312;2023-04-06T11:27:58;8.10;;;5.03;;
3647;SDS011;1840;48.892;15.312;2023-04-06T11:30:27;9.00;;;5.20;;
3647;SDS011;1840;48.892;15.312;2023-04-06T11:33:00;7.13;;;5.00;;
3647;SDS011;1840;48.892;15.312;2023-04-06T11:35:29;9.37;;;5.33;;
3647;SDS011;1840;48.892;15.312;2023-04-06T11:38:03;11.00;;;5.83;;
3647;SDS011;1840;48.892;15.312;2023-04-06T11:40:31;9.90;;;5.30;;
3647;SDS011;1840;48.892;15.312;2023-04-06T11:42:59;10.03;;;6.13;;
3647;SDS011;1840;48.892;15.312;2023-04-06T11:45:27;10.77;;;5.60;;
3647;SDS011;1840;48.892;15.312;2023-04-06T11:48:06;18.30;;;5.90;;
3647;SDS011;1840;48.892;15.312;2023-04-06T11:50:46;9.90;;;5.67;;
3647;SDS011;1840;48.892;15.312;2023-04-06T11:53:16;7.53;;;5.27;;
3647;SDS011;1840;48.892;15.312;2023-04-06T11:55:44;10.33;;;5.17;;
3647;SDS011;1840;48.892;15.312;2023-04-06T11:58:13;7.20;;;4.10;;
3647;SDS011;1840;48.892;15.312;2023-04-06T12:00:43;8.17;;;5.10;;
3647;SDS011;1840;48.892;15.312;2023-04-06T12:03:13;14.40;;;6.37;;
3647;SDS011;1840;48.892;15.312;2023-04-06T12:05:43;11.07;;;5.70;;
3647;SDS011;1840;48.892;15.312;2023-04-06T12:08:11;9.93;;;5.53;;
3647;SDS011;1840;48.892;15.312;2023-04-06T12:10:41;10.50;;;5.37;;
3647;SDS011;1840;48.892;15.312;2023-04-06T12:13:09;9.27;;;4.70;;
3647;SDS011;1840;48.892;15.312;2023-04-06T12:15:38;9.57;;;4.90;;
3647;SDS011;1840;48.892;15.312;2023-04-06T12:18:06;10.20;;;5.93;;
3647;SDS011;1840;48.892;15.312;2023-04-06T12:20:35;10.53;;;4.60;;
3647;SDS011;1840;48.892;15.312;2023-04-06T12:23:03;8.43;;;4.90;;
3647;SDS011;1840;48.892;15.312;2023-04-06T12:25:31;8.23;;;5.00;;
3647;SDS011;1840;48.892;15.312;2023-04-06T12:28:01;6.93;;;4.67;;
3647;SDS011;1840;48.892;15.312;2023-04-06T12:30:29;8.00;;;4.67;;
3647;SDS011;1840;48.892;15.312;2023-04-06T12:32:58;7.43;;;4.53;;
3647;SDS011;1840;48.892;15.312;2023-04-06T12:35:26;6.90;;;4.50;;
3647;SDS011;1840;48.892;15.312;2023-04-06T12:37:54;7.70;;;4.23;;
3647;SDS011;1840;48.892;15.312;2023-04-06T12:40:22;7.80;;;5.20;;
3647;SDS011;1840;48.892;15.312;2023-04-06T12:42:50;7.97;;;4.70;;
3647;SDS011;1840;48.892;15.312;2023-04-06T12:45:20;6.97;;;4.43;;
3647;SDS011;1840;48.892;15.312;2023-04-06T12:47:48;7.40;;;4.50;;
3647;SDS011;1840;48.892;15.312;2023-04-06T12:50:16;8.60;;;4.97;;
3647;SDS011;1840;48.892;15.312;2023-04-06T12:52:44;7.60;;;4.83;;
3647;SDS011;1840;48.892;15.312;2023-04-06T12:55:12;8.97;;;4.77;;
3647;SDS011;1840;48.892;15.312;2023-04-06T12:57:40;8.60;;;4.60;;
3647;SDS011;1840;48.892;15.312;2023-04-06T13:00:09;7.47;;;4.90;;
3647;SDS011;1840;48.892;15.312;2023-04-06T13:02:39;7.80;;;4.70;;
3647;SDS011;1840;48.892;15.312;2023-04-06T13:05:13;9.60;;;4.80;;
3647;SDS011;1840;48.892;15.312;2023-04-06T13:07:45;8.80;;;5.13;;
3647;SDS011;1840;48.892;15.312;2023-04-06T13:10:13;9.60;;;4.77;;
3647;SDS011;1840;48.892;15.312;2023-04-06T13:12:41;6.70;;;4.23;;
3647;SDS011;1840;48.892;15.312;2023-04-06T13:15:10;6.20;;;4.27;;
3647;SDS011;1840;48.892;15.312;2023-04-06T13:17:39;7.03;;;4.10;;
3647;SDS011;1840;48.892;15.312;2023-04-06T13:20:08;8.27;;;4.40;;
3647;SDS011;1840;48.892;15.312;2023-04-06T13:22:36;8.87;;;5.03;;
3647;SDS011;1840;48.892;15.312;2023-04-06T13:25:05;11.00;;;5.17;;
3647;SDS011;1840;48.892;15.312;2023-04-06T13:27:33;10.73;;;6.00;;
3647;SDS011;1840;48.892;15.312;2023-04-06T13:30:02;11.17;;;4.90;;
3647;SDS011;1840;48.892;15.312;2023-04-06T13:32:32;7.40;;;4.33;;
3647;SDS011;1840;48.892;15.312;2023-04-06T13:35:02;6.60;;;4.03;;
3647;SDS011;1840;48.892;15.312;2023-04-06T13:37:31;8.10;;;4.73;;
3647;SDS011;1840;48.892;15.312;2023-04-06T13:39:59;10.50;;;4.83;;
3647;SDS011;1840;48.892;15.312;2023-04-06T13:42:28;8.73;;;4.50;;
3647;SDS011;1840;48.892;15.312;2023-04-06T13:44:57;7.10;;;4.53;;
3647;SDS011;1840;48.892;15.312;2023-04-06T13:47:25;8.23;;;4.67;;
3647;SDS011;1840;48.892;15.312;2023-04-06T13:49:53;6.77;;;4.60;;
3647;SDS011;1840;48.892;15.312;2023-04-06T13:52:23;8.93;;;4.57;;
3647;SDS011;1840;48.892;15.312;2023-04-06T13:54:52;8.43;;;5.10;;
3647;SDS011;1840;48.892;15.312;2023-04-06T13:57:20;10.53;;;5.23;;
3647;SDS011;1840;48.892;15.312;2023-04-06T13:59:48;8.43;;;5.30;;
3647;SDS011;1840;48.892;15.312;2023-04-06T14:02:16;5.63;;;4.10;;
3647;SDS011;1840;48.892;15.312;2023-04-06T14:04:46;8.90;;;5.13;;
3647;SDS011;1840;48.892;15.312;2023-04-06T14:07:14;6.87;;;4.77;;
3647;SDS011;1840;48.892;15.312;2023-04-06T14:09:43;10.50;;;4.83;;
3647;SDS011;1840;48.892;15.312;2023-04-06T14:12:11;10.40;;;5.10;;
3647;SDS011;1840;48.892;15.312;2023-04-06T14:14:39;8.70;;;4.60;;
3647;SDS011;1840;48.892;15.312;2023-04-06T14:17:07;8.30;;;4.77;;
3647;SDS011;1840;48.892;15.312;2023-04-06T14:19:35;11.30;;;5.10;;
3647;SDS011;1840;48.892;15.312;2023-04-06T14:22:04;9.30;;;4.70;;
3647;SDS011;1840;48.892;15.312;2023-04-06T14:24:32;6.90;;;3.70;;
3647;SDS011;1840;48.892;15.312;2023-04-06T14:27:02;6.90;;;4.50;;
3647;SDS011;1840;48.892;15.312;2023-04-06T14:29:30;7.40;;;4.30;;
3647;SDS011;1840;48.892;15.312;2023-04-06T14:31:58;7.90;;;4.60;;
3647;SDS011;1840;48.892;15.312;2023-04-06T14:34:26;9.60;;;4.47;;
3647;SDS011;1840;48.892;15.312;2023-04-06T14:36:54;9.73;;;4.43;;
3647;SDS011;1840;48.892;15.312;2023-04-06T14:39:23;11.43;;;4.70;;
3647;SDS011;1840;48.892;15.312;2023-04-06T14:41:50;8.80;;;5.17;;
3647;SDS011;1840;48.892;15.312;2023-04-06T14:44:20;6.87;;;4.27;;
3647;SDS011;1840;48.892;15.312;2023-04-06T14:46:48;8.97;;;5.00;;
3647;SDS011;1840;48.892;15.312;2023-04-06T14:49:16;6.77;;;4.20;;
3647;SDS011;1840;48.892;15.312;2023-04-06T14:51:44;10.83;;;4.60;;
3647;SDS011;1840;48.892;15.312;2023-04-06T14:54:12;7.30;;;4.90;;
3647;SDS011;1840;48.892;15.312;2023-04-06T14:56:40;7.47;;;4.60;;
3647;SDS011;1840;48.892;15.312;2023-04-06T14:59:09;10.50;;;4.77;;
3647;SDS011;1840;48.892;15.312;2023-04-06T15:01:38;10.73;;;4.60;;
3647;SDS011;1840;48.892;15.312;2023-04-06T15:04:06;6.23;;;4.30;;